createdAt,value
2018-09-28T00:02:10.873Z,65.02
2018-09-28T00:04:38.616Z,65.06
2018-09-28T00:07:06.181Z,64.95
2018-09-28T00:09:33.746Z,65.06
2018-09-28T00:12:01.318Z,64.78
2018-09-28T00:14:28.853Z,65.92
2018-09-28T00:16:56.411Z,66.18
2018-09-28T00:19:23.990Z,65.64
2018-09-28T00:21:51.556Z,65.40
2018-09-28T00:24:19.181Z,66.20
2018-09-28T00:26:46.721Z,65.75
2018-09-28T00:29:14.301Z,66.13
2018-09-28T00:31:41.917Z,65.75
2018-09-28T00:34:09.672Z,66.39
2018-09-28T00:36:37.261Z,65.29
2018-09-28T00:39:04.778Z,65.45
2018-09-28T00:41:32.693Z,65.86
2018-09-28T00:44:00.230Z,65.58
2018-09-28T00:46:27.779Z,65.77
2018-09-28T00:48:55.381Z,65.85
2018-09-28T00:51:22.973Z,65.24
2018-09-28T00:53:50.628Z,65.83
2018-09-28T00:56:19.185Z,66.06
2018-09-28T00:58:46.743Z,66.56
2018-09-28T01:01:14.481Z,66.43
2018-09-28T01:03:42.063Z,66.64
2018-09-28T01:06:09.645Z,67.00
2018-09-28T01:08:37.247Z,66.94
2018-09-28T01:11:05.270Z,67.87
2018-09-28T01:13:32.836Z,67.17
2018-09-28T01:16:00.403Z,67.57
2018-09-28T01:18:27.967Z,67.22
2018-09-28T01:20:55.546Z,67.22
2018-09-28T01:23:23.133Z,67.84
2018-09-28T01:25:50.673Z,67.08
2018-09-28T01:28:19.329Z,67.12
2018-09-28T01:30:46.895Z,67.70
2018-09-28T01:33:14.468Z,67.26
2018-09-28T01:35:42.012Z,66.87
2018-09-28T01:38:09.593Z,66.64
2018-09-28T01:40:37.150Z,67.00
2018-09-28T01:43:04.737Z,67.16
2018-09-28T01:45:32.305Z,67.64
2018-09-28T01:47:59.929Z,67.62
2018-09-28T01:50:27.465Z,66.63
2018-09-28T01:52:54.973Z,65.18
2018-09-28T01:55:22.547Z,65.86
2018-09-28T01:57:50.077Z,65.18
2018-09-28T02:00:17.820Z,64.95
2018-09-28T02:02:45.422Z,65.41
2018-09-28T02:05:13.101Z,65.79
2018-09-28T02:07:40.663Z,64.89
2018-09-28T02:10:08.201Z,64.87
2018-09-28T02:12:35.804Z,65.26
2018-09-28T02:15:03.395Z,65.21
2018-09-28T02:17:30.954Z,65.57
2018-09-28T02:19:58.752Z,65.81
2018-09-28T02:22:26.286Z,65.65
2018-09-28T02:24:53.836Z,66.35
2018-09-28T02:27:21.455Z,67.20
2018-09-28T02:29:49.001Z,67.41
2018-09-28T02:32:16.579Z,67.14
2018-09-28T02:34:44.109Z,67.47
2018-09-28T02:37:11.660Z,67.00
2018-09-28T02:39:39.205Z,67.98
2018-09-28T02:42:06.848Z,68.42
2018-09-28T02:44:34.371Z,67.73
2018-09-28T02:47:01.890Z,67.28
2018-09-28T02:49:29.480Z,67.90
2018-09-28T02:51:57.038Z,67.07
2018-09-28T02:54:24.587Z,67.58
2018-09-28T02:56:52.206Z,67.95
2018-09-28T02:59:19.773Z,68.17
2018-09-28T03:01:47.326Z,68.25
2018-09-28T03:04:14.907Z,68.56
2018-09-28T03:06:42.442Z,69.11
2018-09-28T03:09:10.046Z,68.89
2018-09-28T03:11:37.571Z,69.65
2018-09-28T03:14:05.284Z,69.77
2018-09-28T03:16:32.877Z,70.21
2018-09-28T03:19:00.546Z,69.80
2018-09-28T03:21:28.313Z,69.24
2018-09-28T03:23:55.870Z,69.77
2018-09-28T03:26:23.536Z,69.01
2018-09-28T03:28:51.096Z,69.71
2018-09-28T03:31:18.729Z,69.94
2018-09-28T03:33:46.285Z,70.21
2018-09-28T03:36:13.862Z,69.65
2018-09-28T03:38:41.431Z,69.38
2018-09-28T03:41:08.961Z,69.84
2018-09-28T03:43:36.521Z,69.40
2018-09-28T03:46:04.104Z,70.26
2018-09-28T03:48:31.652Z,70.14
2018-09-28T03:50:59.345Z,70.93
2018-09-28T03:53:26.895Z,71.58
2018-09-28T03:55:54.469Z,70.41
2018-09-28T03:58:22.041Z,71.02
2018-09-28T04:00:50.173Z,70.64
2018-09-28T04:03:17.845Z,70.10
2018-09-28T04:05:45.389Z,69.92
2018-09-28T04:08:13.115Z,71.08
2018-09-28T04:10:40.658Z,71.14
2018-09-28T04:13:08.219Z,69.34
2018-09-28T04:15:35.782Z,69.14
2018-09-28T04:18:03.566Z,67.91
2018-09-28T04:20:31.161Z,68.24
2018-09-28T04:22:58.694Z,67.84
2018-09-28T04:25:26.247Z,69.66
2018-09-28T04:27:54.001Z,69.79
2018-09-28T04:30:21.585Z,70.34
2018-09-28T04:32:49.201Z,70.13
2018-09-28T04:35:16.785Z,70.31
2018-09-28T04:37:44.355Z,72.20
2018-09-28T04:40:11.957Z,72.79
2018-09-28T04:42:39.528Z,72.73
2018-09-28T04:45:07.106Z,73.42
2018-09-28T04:47:34.669Z,73.21
2018-09-28T04:50:02.334Z,73.47
2018-09-28T04:52:29.896Z,73.82
2018-09-28T04:54:57.467Z,73.70
2018-09-28T04:57:25.053Z,73.44
2018-09-28T04:59:52.589Z,73.19
2018-09-28T05:02:20.129Z,72.92
2018-09-28T05:04:47.689Z,72.03
2018-09-28T05:07:15.289Z,72.16
2018-09-28T05:09:42.876Z,71.91
2018-09-28T05:12:10.394Z,72.10
2018-09-28T05:14:38.255Z,72.36
2018-09-28T05:17:05.864Z,72.07
2018-09-28T05:19:33.467Z,71.79
2018-09-28T05:22:01.004Z,71.17
2018-09-28T05:24:28.565Z,70.46
2018-09-28T05:26:56.164Z,69.87
2018-09-28T05:29:23.699Z,68.97
2018-09-28T05:31:51.337Z,70.04
2018-09-28T05:34:19.451Z,70.38
2018-09-28T05:36:47.144Z,72.12
2018-09-28T05:39:15.215Z,72.50
2018-09-28T05:41:42.861Z,72.82
2018-09-28T05:44:10.931Z,73.54
2018-09-28T05:46:38.514Z,74.02
2018-09-28T05:49:06.071Z,75.47
2018-09-28T05:51:33.677Z,74.32
2018-09-28T05:54:01.213Z,77.69
2018-09-28T05:56:28.805Z,77.84
2018-09-28T05:58:56.341Z,77.97
2018-09-28T06:01:40.607Z,76.66
2018-09-28T06:04:08.178Z,75.69
2018-09-28T06:06:35.745Z,75.14
2018-09-28T06:09:03.289Z,75.16
2018-09-28T06:11:30.874Z,78.42
2018-09-28T06:13:58.533Z,75.91
2018-09-28T06:16:27.478Z,74.03
2018-09-28T06:18:55.607Z,76.61
2018-09-28T06:21:23.635Z,77.53
2018-09-28T06:23:51.722Z,80.00
2018-09-28T06:26:19.775Z,79.27
2018-09-28T06:28:47.782Z,79.83
2018-09-28T06:31:15.756Z,79.12
2018-09-28T06:33:43.687Z,79.30
2018-09-28T06:36:11.648Z,78.11
2018-09-28T06:38:39.666Z,78.26
2018-09-28T06:41:07.563Z,78.90
2018-09-28T06:43:35.475Z,77.33
2018-09-28T06:46:03.054Z,80.13
2018-09-28T06:48:30.637Z,79.20
2018-09-28T06:50:58.262Z,77.48
2018-09-28T06:53:25.861Z,78.33
2018-09-28T06:55:53.477Z,79.83
2018-09-28T06:58:21.350Z,80.38
2018-09-28T07:00:48.853Z,78.39
2018-09-28T07:03:16.468Z,77.15
2018-09-28T07:05:44.140Z,76.30
2018-09-28T07:08:11.951Z,77.94
2018-09-28T07:10:39.537Z,78.06
2018-09-28T07:13:07.284Z,77.81
2018-09-28T07:15:34.980Z,77.02
2018-09-28T07:18:02.665Z,77.97
2018-09-28T07:20:30.234Z,76.06
2018-09-28T07:22:57.812Z,75.36
2018-09-28T07:25:25.366Z,75.30
2018-09-28T07:27:52.937Z,75.04
2018-09-28T07:30:20.719Z,74.75
2018-09-28T07:32:48.432Z,74.92
2018-09-28T07:35:16.214Z,74.80
2018-09-28T07:37:43.775Z,74.82
2018-09-28T07:40:11.362Z,76.72
2018-09-28T07:42:38.915Z,74.68
2018-09-28T07:45:06.530Z,74.11
2018-09-28T07:47:34.078Z,74.93
2018-09-28T07:50:01.680Z,76.92
2018-09-28T07:52:29.238Z,75.05
2018-09-28T07:54:56.773Z,74.76
2018-09-28T07:57:24.334Z,74.55
2018-09-28T07:59:51.864Z,74.45
2018-09-28T08:02:19.558Z,75.24
2018-09-28T08:04:47.133Z,74.44
2018-09-28T08:07:14.665Z,75.08
2018-09-28T08:09:42.229Z,76.23
2018-09-28T08:12:09.763Z,76.12
2018-09-28T08:14:37.381Z,75.76
2018-09-28T08:17:05.091Z,75.07
2018-09-28T08:19:32.625Z,75.24
2018-09-28T08:22:00.247Z,75.56
2018-09-28T08:24:27.859Z,76.11
2018-09-28T08:26:55.486Z,76.45
2018-09-28T08:29:23.061Z,77.20
2018-09-28T08:31:50.665Z,77.28
2018-09-28T08:34:18.230Z,76.24
2018-09-28T08:36:45.812Z,77.42
2018-09-28T08:39:13.543Z,77.35
2018-09-28T08:41:41.287Z,75.87
2018-09-28T08:44:08.820Z,76.48
2018-09-28T08:46:36.565Z,77.32
2018-09-28T08:49:04.364Z,76.22
2018-09-28T08:51:31.896Z,76.43
2018-09-28T08:53:59.531Z,75.89
2018-09-28T08:56:27.115Z,75.91
2018-09-28T08:58:54.695Z,76.00
2018-09-28T09:01:22.467Z,75.95
2018-09-28T09:03:50.022Z,75.56
2018-09-28T09:06:17.593Z,76.17
2018-09-28T09:08:45.106Z,75.38
2018-09-28T09:11:12.671Z,75.59
2018-09-28T09:13:40.200Z,75.08
2018-09-28T09:16:07.890Z,75.98
2018-09-28T09:18:35.473Z,75.46
2018-09-28T09:21:03.002Z,75.52
2018-09-28T09:23:30.584Z,75.75
2018-09-28T09:25:58.117Z,75.93
2018-09-28T09:28:25.672Z,75.90
2018-09-28T09:30:53.230Z,75.06
2018-09-28T09:33:20.761Z,74.96
2018-09-28T09:35:48.332Z,75.48
2018-09-28T09:38:15.893Z,75.93
2018-09-28T09:40:43.476Z,75.48
2018-09-28T09:43:11.055Z,75.78
2018-09-28T09:45:38.585Z,75.46
2018-09-28T09:48:06.181Z,76.35
2018-09-28T09:50:33.732Z,75.59
2018-09-28T09:53:01.320Z,75.78
2018-09-28T09:55:28.872Z,75.77
2018-09-28T09:57:56.562Z,75.45
2018-09-28T10:00:24.039Z,75.88
2018-09-28T10:03:07.248Z,75.32
2018-09-28T10:05:34.823Z,75.54
2018-09-28T10:08:02.363Z,75.24
2018-09-28T10:10:29.920Z,75.32
2018-09-28T10:12:57.473Z,75.89
2018-09-28T10:15:25.054Z,75.74
2018-09-28T10:17:52.578Z,75.84
2018-09-28T10:20:20.137Z,75.73
2018-09-28T10:22:47.707Z,76.12
2018-09-28T10:25:15.243Z,75.94
2018-09-28T10:27:42.876Z,75.85
2018-09-28T10:30:10.429Z,76.37
2018-09-28T10:32:38.001Z,76.55
2018-09-28T10:35:05.568Z,76.45
2018-09-28T10:37:33.178Z,76.74
2018-09-28T10:40:00.709Z,76.03
2018-09-28T10:42:28.254Z,75.34
2018-09-28T10:44:55.820Z,76.20
2018-09-28T10:47:23.339Z,75.48
2018-09-28T10:49:50.922Z,75.28
2018-09-28T10:52:19.567Z,75.21
2018-09-28T10:54:47.075Z,74.50
2018-09-28T10:57:14.670Z,74.65
2018-09-28T10:59:42.284Z,74.37
2018-09-28T11:02:09.872Z,74.22
2018-09-28T11:04:37.459Z,74.48
2018-09-28T11:07:05.025Z,74.09
2018-09-28T11:09:32.582Z,74.80
2018-09-28T11:12:00.150Z,73.52
2018-09-28T11:14:27.732Z,73.84
2018-09-28T11:16:55.441Z,73.88
2018-09-28T11:19:22.956Z,73.81
2018-09-28T11:21:50.540Z,74.11
2018-09-28T11:24:18.055Z,74.02
2018-09-28T11:26:45.634Z,73.90
2018-09-28T11:29:13.351Z,73.23
2018-09-28T11:31:40.903Z,73.91
2018-09-28T11:34:08.472Z,73.28
2018-09-28T11:36:36.134Z,73.96
2018-09-28T11:39:03.802Z,72.74
2018-09-28T11:41:31.583Z,71.63
2018-09-28T11:43:59.145Z,71.71
2018-09-28T11:46:26.683Z,71.78
2018-09-28T11:48:54.291Z,71.69
2018-09-28T11:51:21.862Z,71.11
2018-09-28T11:53:49.451Z,71.41
2018-09-28T11:56:17.004Z,71.16
2018-09-28T11:58:44.580Z,70.55
2018-09-28T12:01:12.142Z,69.95
2018-09-28T12:03:39.783Z,70.11
2018-09-28T12:06:07.343Z,70.39
2018-09-28T12:08:34.866Z,70.32
2018-09-28T12:11:02.469Z,70.32
2018-09-28T12:13:30.075Z,69.47
2018-09-28T12:15:57.593Z,69.56
2018-09-28T12:18:25.224Z,69.48
2018-09-28T12:20:52.722Z,68.92
2018-09-28T12:23:20.262Z,69.34
2018-09-28T12:25:47.850Z,69.10
2018-09-28T12:28:15.438Z,69.47
2018-09-28T12:30:42.996Z,69.12
2018-09-28T12:33:10.599Z,68.87
2018-09-28T12:35:38.227Z,67.74
2018-09-28T12:38:05.937Z,68.16
2018-09-28T12:40:33.473Z,68.35
2018-09-28T12:43:01.029Z,67.85
2018-09-28T12:45:28.707Z,67.44
2018-09-28T12:47:56.307Z,66.42
2018-09-28T12:50:24.015Z,66.88
2018-09-28T12:52:51.439Z,66.71
2018-09-28T12:55:19.014Z,66.22
2018-09-28T12:57:46.541Z,65.94
2018-09-28T13:00:14.309Z,64.77
2018-09-28T13:02:41.834Z,65.18
2018-09-28T13:05:09.422Z,64.83
2018-09-28T13:07:37.015Z,65.48
2018-09-28T13:10:04.613Z,64.99
2018-09-28T13:12:32.179Z,65.57
2018-09-28T13:14:59.961Z,65.27
2018-09-28T13:17:27.688Z,65.34
2018-09-28T13:19:55.252Z,65.99
2018-09-28T13:22:22.781Z,65.39
2018-09-28T13:24:50.466Z,64.67
2018-09-28T13:27:17.939Z,65.17
2018-09-28T13:29:45.517Z,66.13
2018-09-28T13:32:13.155Z,65.17
2018-09-28T13:34:40.720Z,64.49
2018-09-28T13:37:08.273Z,63.64
2018-09-28T13:39:35.919Z,63.71
2018-09-28T13:42:03.448Z,63.53
2018-09-28T13:44:31.084Z,62.88
2018-09-28T13:46:58.611Z,62.75
2018-09-28T13:49:26.351Z,62.57
2018-09-28T13:51:54.000Z,62.18
2018-09-28T13:54:21.568Z,62.58
2018-09-28T13:56:49.319Z,61.80
2018-09-28T13:59:16.755Z,61.56
2018-09-28T14:01:44.372Z,60.89
2018-09-28T14:04:11.931Z,60.80
2018-09-28T14:06:39.540Z,60.63
2018-09-28T14:09:07.086Z,60.94
2018-09-28T14:11:34.647Z,60.28
2018-09-28T14:14:02.194Z,60.86
2018-09-28T14:16:29.786Z,60.52
2018-09-28T14:18:57.357Z,60.64
2018-09-28T14:21:25.063Z,60.37
2018-09-28T14:23:52.594Z,59.57
2018-09-28T14:26:20.172Z,59.79
2018-09-28T14:28:47.726Z,59.48
2018-09-28T14:31:15.299Z,59.77
2018-09-28T14:33:42.937Z,58.72
2018-09-28T14:36:10.490Z,59.15
2018-09-28T14:38:38.052Z,59.20
2018-09-28T14:41:05.594Z,59.45
2018-09-28T14:43:33.160Z,58.70
2018-09-28T14:46:00.786Z,57.43
2018-09-28T14:48:28.413Z,58.17
2018-09-28T14:50:55.927Z,56.39
2018-09-28T14:53:23.490Z,54.85
2018-09-28T14:55:51.345Z,56.71
2018-09-28T14:58:20.112Z,57.22
2018-09-28T15:00:47.872Z,55.97
2018-09-28T15:03:15.248Z,55.88
2018-09-28T15:05:43.075Z,55.45
2018-09-28T15:08:11.187Z,56.53
2018-09-28T15:10:39.540Z,55.78
2018-09-28T15:13:07.264Z,55.96
2018-09-28T15:15:34.894Z,54.73
2018-09-28T15:18:02.472Z,55.12
2018-09-28T15:20:30.014Z,55.92
2018-09-28T15:22:57.626Z,54.57
2018-09-28T15:25:25.211Z,54.02
2018-09-28T15:27:52.742Z,54.44
2018-09-28T15:30:20.401Z,55.81
2018-09-28T15:32:47.870Z,55.06
2018-09-28T15:35:15.498Z,54.75
2018-09-28T15:37:43.023Z,54.97
2018-09-28T15:40:10.579Z,55.25
2018-09-28T15:42:38.229Z,54.94
2018-09-28T15:45:05.777Z,54.93
2018-09-28T15:47:33.448Z,54.45
2018-09-28T15:50:00.982Z,55.62
2018-09-28T15:52:28.575Z,56.23
2018-09-28T15:54:56.118Z,55.69
2018-09-28T15:57:23.700Z,55.51
2018-09-28T15:59:51.238Z,55.03
2018-09-28T16:02:19.738Z,54.62
2018-09-28T16:04:47.298Z,54.69
2018-09-28T16:07:14.825Z,54.62
2018-09-28T16:09:42.451Z,54.98
2018-09-28T16:12:10.014Z,54.83
2018-09-28T16:14:37.572Z,55.04
2018-09-28T16:17:05.104Z,55.08
2018-09-28T16:19:32.900Z,55.88
2018-09-28T16:22:00.665Z,55.75
2018-09-28T16:24:28.207Z,56.02
2018-09-28T16:26:56.045Z,55.89
2018-09-28T16:29:23.583Z,55.76
2018-09-28T16:31:51.179Z,55.63
2018-09-28T16:34:19.596Z,55.48
2018-09-28T16:36:47.298Z,55.88
2018-09-28T16:39:14.905Z,56.04
2018-09-28T16:41:42.493Z,56.42
2018-09-28T16:44:10.205Z,55.71
2018-09-28T16:46:37.986Z,56.55
2018-09-28T16:49:05.534Z,56.17
2018-09-28T16:51:33.315Z,56.37
2018-09-28T16:54:01.020Z,56.61
2018-09-28T16:56:28.580Z,56.85
2018-09-28T16:58:56.171Z,57.44
2018-09-28T17:01:23.711Z,56.79
2018-09-28T17:03:51.290Z,57.08
2018-09-28T17:06:19.582Z,56.85
2018-09-28T17:08:47.214Z,57.19
2018-09-28T17:11:14.786Z,56.46
2018-09-28T17:13:42.350Z,56.78
2018-09-28T17:16:09.928Z,55.87
2018-09-28T17:18:37.488Z,55.96
2018-09-28T17:21:05.057Z,56.68
2018-09-28T17:23:32.660Z,56.26
2018-09-28T17:26:00.185Z,56.26
2018-09-28T17:28:27.910Z,55.94
2018-09-28T17:30:55.492Z,56.38
2018-09-28T17:33:23.029Z,56.59
2018-09-28T17:35:50.632Z,57.08
2018-09-28T17:38:18.207Z,57.00
2018-09-28T17:40:45.782Z,57.16
2018-09-28T17:43:13.380Z,57.49
2018-09-28T17:45:41.002Z,57.40
2018-09-28T17:48:08.614Z,57.63
2018-09-28T17:50:36.163Z,57.76
2018-09-28T17:53:03.737Z,57.76
2018-09-28T17:55:31.304Z,57.63
2018-09-28T17:57:58.902Z,57.88
2018-09-28T18:00:26.493Z,57.92
2018-09-28T18:02:54.149Z,57.79
2018-09-28T18:05:21.896Z,57.47
2018-09-28T18:07:49.462Z,57.62
2018-09-28T18:10:16.986Z,57.97
2018-09-28T18:12:44.572Z,58.25
2018-09-28T18:15:12.147Z,57.76
2018-09-28T18:17:39.833Z,58.04
2018-09-28T18:20:07.419Z,58.02
2018-09-28T18:22:35.117Z,58.21
2018-09-28T18:25:02.650Z,58.14
2018-09-28T18:27:30.221Z,58.14
2018-09-28T18:29:57.758Z,58.35
2018-09-28T18:32:25.333Z,58.30
2018-09-28T18:34:52.864Z,58.48
2018-09-28T18:37:20.532Z,58.46
2018-09-28T18:39:48.076Z,58.49
2018-09-28T18:42:15.642Z,58.12
2018-09-28T18:44:43.218Z,58.65
2018-09-28T18:47:10.744Z,58.57
2018-09-28T18:49:38.379Z,58.59
2018-09-28T18:52:05.899Z,58.65
2018-09-28T18:54:33.557Z,58.69
2018-09-28T18:57:01.158Z,59.08
2018-09-28T18:59:28.747Z,59.22
2018-09-28T19:01:56.283Z,59.23
2018-09-28T19:04:23.974Z,59.30
2018-09-28T19:06:51.562Z,59.39
2018-09-28T19:09:19.078Z,59.51
2018-09-28T19:11:46.675Z,59.67
2018-09-28T19:14:14.311Z,59.71
2018-09-28T19:16:41.851Z,59.59
2018-09-28T19:19:09.371Z,59.82
2018-09-28T19:21:37.030Z,59.86
2018-09-28T19:24:04.733Z,59.91
2018-09-28T19:26:32.287Z,60.02
2018-09-28T19:28:59.861Z,60.00
2018-09-28T19:31:27.409Z,59.99
2018-09-28T19:33:55.061Z,60.02
2018-09-28T19:36:22.612Z,60.41
2018-09-28T19:38:50.157Z,60.26
2018-09-28T19:41:17.763Z,60.33
2018-09-28T19:43:45.314Z,60.11
2018-09-28T19:46:12.946Z,60.15
2018-09-28T19:48:40.501Z,60.30
2018-09-28T19:51:08.067Z,60.23
2018-09-28T19:53:35.687Z,60.30
2018-09-28T19:56:03.224Z,59.85
2018-09-28T19:58:30.794Z,60.27
2018-09-28T20:00:58.336Z,60.32
2018-09-28T20:03:25.890Z,59.93
2018-09-28T20:05:53.403Z,60.58
2018-09-28T20:08:21.001Z,60.58
2018-09-28T20:10:48.592Z,60.75
2018-09-28T20:13:16.171Z,60.87
2018-09-28T20:15:43.720Z,61.01
2018-09-28T20:18:11.299Z,60.93
2018-09-28T20:20:38.884Z,60.78
2018-09-28T20:23:06.453Z,60.95
2018-09-28T20:25:34.130Z,61.02
2018-09-28T20:28:01.911Z,61.00
2018-09-28T20:30:29.779Z,60.97
2018-09-28T20:32:57.622Z,61.00
2018-09-28T20:35:25.164Z,61.09
2018-09-28T20:37:52.732Z,61.20
2018-09-28T20:40:20.457Z,61.51
2018-09-28T20:42:48.502Z,61.50
2018-09-28T20:45:16.317Z,61.71
2018-09-28T20:47:44.012Z,61.56
2018-09-28T20:50:11.542Z,61.59
2018-09-28T20:52:39.743Z,61.73
2018-09-28T20:55:07.309Z,61.80
2018-09-28T20:57:34.880Z,62.00
2018-09-28T21:00:02.437Z,61.69
2018-09-28T21:02:30.017Z,61.98
2018-09-28T21:04:57.522Z,62.04
2018-09-28T21:07:25.308Z,62.31
2018-09-28T21:09:52.827Z,62.30
2018-09-28T21:12:20.401Z,62.15
2018-09-28T21:14:47.940Z,62.09
2018-09-28T21:17:15.718Z,62.02
2018-09-28T21:19:43.258Z,62.06
2018-09-28T21:22:10.861Z,62.28
2018-09-28T21:24:38.462Z,62.36
2018-09-28T21:27:05.990Z,62.31
2018-09-28T21:29:33.554Z,62.44
2018-09-28T21:32:01.094Z,62.54
2018-09-28T21:34:28.659Z,62.51
2018-09-28T21:36:56.212Z,62.15
2018-09-28T21:39:23.812Z,62.48
2018-09-28T21:41:51.490Z,62.67
2018-09-28T21:44:19.460Z,62.60
2018-09-28T21:46:47.037Z,62.74
2018-09-28T21:49:14.610Z,62.59
2018-09-28T21:51:42.186Z,62.29
2018-09-28T21:54:09.712Z,62.52
2018-09-28T21:56:37.271Z,62.36
2018-09-28T21:59:04.842Z,62.44
2018-09-28T22:01:32.353Z,62.55
2018-09-28T22:03:59.948Z,62.56
2018-09-28T22:06:27.467Z,62.78
2018-09-28T22:08:55.041Z,62.64
2018-09-28T22:11:22.554Z,62.78
2018-09-28T22:13:50.118Z,62.85
2018-09-28T22:16:17.661Z,62.81
2018-09-28T22:18:45.199Z,62.97
2018-09-28T22:21:12.787Z,62.74
2018-09-28T22:23:40.407Z,62.82
2018-09-28T22:26:08.022Z,62.73
2018-09-28T22:28:35.668Z,62.83
2018-09-28T22:31:03.261Z,62.33
2018-09-28T22:33:30.852Z,62.37
2018-09-28T22:35:58.485Z,62.18
2018-09-28T22:38:26.002Z,62.36
2018-09-28T22:40:53.535Z,62.11
2018-09-28T22:43:21.119Z,62.77
2018-09-28T22:45:48.845Z,63.92
2018-09-28T22:48:16.416Z,65.55
2018-09-28T22:50:44.001Z,65.49
2018-09-28T22:53:11.528Z,66.26
2018-09-28T22:55:39.106Z,66.05
2018-09-28T22:58:06.703Z,66.19
2018-09-28T23:00:34.248Z,66.81
2018-09-28T23:03:01.955Z,66.82
2018-09-28T23:05:29.525Z,65.50
2018-09-28T23:07:57.129Z,66.60
2018-09-28T23:10:24.650Z,67.41
2018-09-28T23:12:52.435Z,67.60
2018-09-28T23:15:19.946Z,67.77
2018-09-28T23:17:47.536Z,66.99
2018-09-28T23:20:15.080Z,66.91
2018-09-28T23:22:42.650Z,68.05
2018-09-28T23:25:10.314Z,69.19
2018-09-28T23:27:37.893Z,67.91
2018-09-28T23:30:05.428Z,67.39
2018-09-28T23:32:32.983Z,69.03
2018-09-28T23:35:00.518Z,68.23
2018-09-28T23:37:28.099Z,69.04
2018-09-28T23:39:55.626Z,68.25
2018-09-28T23:42:23.185Z,68.22
2018-09-28T23:44:50.714Z,67.76
2018-09-28T23:47:18.251Z,67.31
2018-09-28T23:49:45.815Z,67.96
2018-09-28T23:52:13.329Z,67.51
2018-09-28T23:54:40.897Z,67.61
2018-09-28T23:57:08.410Z,67.59
2018-09-28T23:59:35.977Z,68.88
